createdAt,value
2022-09-10T04:02:33.491Z,98543.47
2022-09-10T04:06:45.219Z,98546.75
2022-09-10T04:11:02.439Z,98545.13
2022-09-10T04:15:15.321Z,98542.69
2022-09-10T04:19:28.129Z,98546.13
2022-09-10T04:23:41.229Z,98539.25
2022-09-10T04:27:53.509Z,98534.00
2022-09-10T04:32:05.492Z,98538.69
2022-09-10T04:36:18.576Z,98541.50
2022-09-10T04:40:30.172Z,98536.25
2022-09-10T04:44:41.785Z,98538.06
2022-09-10T04:48:54.213Z,98535.06
2022-09-10T04:53:08.087Z,98541.13
2022-09-10T04:57:22.067Z,98549.22
2022-09-10T05:01:34.782Z,98545.97
2022-09-10T05:05:47.798Z,98551.03
2022-09-10T05:09:59.360Z,98552.06
2022-09-10T05:14:10.912Z,98563.38
2022-09-10T05:18:22.529Z,98558.09
2022-09-10T05:22:40.289Z,98562.94
2022-09-10T05:26:52.669Z,98562.56
2022-09-10T05:31:05.732Z,98570.88
2022-09-10T05:35:18.404Z,98571.69
2022-09-10T05:39:31.474Z,98573.13
2022-09-10T05:43:43.088Z,98571.72
2022-09-10T05:47:55.772Z,98571.09
2022-09-10T05:52:08.395Z,98584.69
2022-09-10T05:56:20.559Z,98583.25
2022-09-10T06:00:32.249Z,98577.59
2022-09-10T06:04:46.114Z,98580.22
2022-09-10T06:08:58.822Z,98578.97
2022-09-10T06:13:22.573Z,98590.91
2022-09-10T06:17:36.137Z,98591.72
2022-09-10T06:21:50.590Z,98597.84
2022-09-10T06:26:04.504Z,98599.84
2022-09-10T06:30:20.331Z,98604.53
2022-09-10T06:34:32.855Z,98608.00
2022-09-10T06:38:45.083Z,98605.81
2022-09-10T06:43:01.535Z,98612.72
2022-09-10T06:48:36.772Z,98608.66
2022-09-10T06:52:05.331Z,98609.28
2022-09-10T06:56:18.479Z,98614.16
2022-09-10T07:00:32.105Z,98612.34
2022-09-10T07:04:45.236Z,98616.19
2022-09-10T07:08:57.796Z,98612.34
2022-09-10T07:13:13.069Z,98610.16
2022-09-10T07:17:29.865Z,98610.16
2022-09-10T07:21:43.634Z,98615.03
2022-09-10T07:26:03.769Z,98615.81
2022-09-10T07:30:28.817Z,98625.53
2022-09-10T07:34:40.414Z,98630.00
2022-09-10T07:38:54.259Z,98642.94
2022-09-10T07:43:06.980Z,98644.19
2022-09-10T07:47:18.903Z,98653.91
2022-09-10T07:51:32.826Z,98659.56
2022-09-10T07:55:46.222Z,98659.97
2022-09-10T08:00:00.556Z,98668.47
2022-09-10T08:04:26.632Z,98669.28
2022-09-10T08:08:39.850Z,98669.50
2022-09-10T08:12:54.711Z,98677.00
2022-09-10T08:17:08.085Z,98670.31
2022-09-10T08:21:25.720Z,98672.94
2022-09-10T08:25:37.994Z,98674.16
2022-09-10T08:29:50.036Z,98671.69
2022-09-10T08:34:01.674Z,98678.22
2022-09-10T08:38:13.333Z,98673.16
2022-09-10T08:42:32.164Z,98678.78
2022-09-10T08:46:48.635Z,98684.19
2022-09-10T08:51:27.596Z,98679.66
2022-09-10T08:55:45.059Z,98684.94
2022-09-10T09:00:01.630Z,98686.19
2022-09-10T09:04:28.722Z,98690.22
2022-09-10T09:08:48.834Z,98685.75
2022-09-10T09:13:29.095Z,98691.09
2022-09-10T09:17:56.072Z,98700.84
2022-09-10T09:22:21.192Z,98687.09
2022-09-10T09:26:36.586Z,98696.00
2022-09-10T09:30:51.277Z,98698.44
2022-09-10T09:35:19.861Z,98698.03
2022-09-10T09:39:38.718Z,98700.69
2022-09-10T09:44:00.391Z,98697.25
2022-09-10T09:48:15.743Z,98700.88
2022-09-10T09:52:31.189Z,98694.00
2022-09-10T09:56:45.897Z,98700.06
2022-09-10T10:01:03.501Z,98701.50
2022-09-10T10:05:25.492Z,98694.81
2022-09-10T10:09:43.922Z,98700.28
2022-09-10T10:14:12.155Z,98700.91
2022-09-10T10:18:31.682Z,98709.41
2022-09-10T10:22:48.632Z,98700.47
2022-09-10T10:27:00.501Z,98706.97
2022-09-10T10:31:13.149Z,98703.72
2022-09-10T10:35:49.001Z,98702.09
2022-09-10T10:40:31.996Z,98701.50
2022-09-10T10:45:00.412Z,98702.28
2022-09-10T10:49:21.238Z,98709.56
2022-09-10T10:54:00.022Z,98718.94
2022-09-10T10:58:36.157Z,98729.66
2022-09-10T11:02:54.533Z,98718.31
2022-09-10T11:07:14.491Z,98719.91
2022-09-10T11:11:37.217Z,98710.38
2022-09-10T11:16:01.216Z,98701.63
2022-09-10T11:20:28.311Z,98706.47
2022-09-10T11:25:17.017Z,98699.41
2022-09-10T11:29:41.408Z,98699.59
2022-09-10T11:34:34.768Z,98696.16
2022-09-10T11:39:00.822Z,98693.09
2022-09-10T11:43:29.083Z,98690.25
2022-09-10T11:47:44.637Z,98690.25
2022-09-10T11:51:56.911Z,98696.41
2022-09-10T11:56:33.235Z,98703.06
2022-09-10T12:01:32.753Z,98707.94
2022-09-10T12:05:54.777Z,98709.13
2022-09-10T12:10:25.117Z,98709.47
2022-09-10T12:14:39.522Z,98697.75
2022-09-10T12:18:54.201Z,98705.66
2022-09-10T12:23:06.512Z,98704.44
2022-09-10T12:27:20.159Z,98706.66
2022-09-10T12:32:09.735Z,98703.88
2022-09-10T12:36:27.339Z,98706.94
2022-09-10T12:40:45.258Z,98714.22
2022-09-10T12:44:57.204Z,98707.84
2022-09-10T12:49:13.941Z,98705.88
2022-09-10T12:53:50.335Z,98709.13
2022-09-10T12:58:12.602Z,98719.50
2022-09-10T13:02:35.314Z,98702.81
2022-09-10T13:06:50.151Z,98694.44
2022-09-10T13:11:07.652Z,98694.97
2022-09-10T13:15:22.704Z,98688.41
2022-09-10T13:19:34.143Z,98688.88
2022-09-10T13:23:47.869Z,98688.16
2022-09-10T13:27:59.415Z,98684.09
2022-09-10T13:32:19.819Z,98693.38
2022-09-10T13:37:01.568Z,98686.75
2022-09-10T13:41:13.026Z,98690.97
2022-09-10T13:45:29.361Z,98688.06
2022-09-10T13:50:10.247Z,98684.06
2022-09-10T13:54:35.756Z,98682.13
2022-09-10T13:58:50.445Z,98679.97
2022-09-10T14:03:02.122Z,98678.31
2022-09-10T14:07:20.689Z,98666.72
2022-09-10T14:11:41.180Z,98681.75
2022-09-10T14:15:54.547Z,98683.31
2022-09-10T14:20:28.668Z,98685.63
2022-09-10T14:25:02.596Z,98683.50
2022-09-10T14:29:25.029Z,98695.31
2022-09-10T14:33:36.650Z,98690.81
2022-09-10T14:37:48.324Z,98692.78
2022-09-10T14:42:23.442Z,98693.69
2022-09-10T14:46:49.283Z,98693.38
2022-09-10T14:51:24.454Z,98699.72
2022-09-10T14:55:36.569Z,98699.56
2022-09-10T14:59:48.093Z,98694.69
2022-09-10T15:03:59.835Z,98687.56
2022-09-10T15:08:11.369Z,98688.13
2022-09-10T15:12:28.316Z,98682.97
2022-09-10T15:16:39.865Z,98684.59
2022-09-10T15:20:51.435Z,98683.59
2022-09-10T15:25:10.138Z,98694.78
2022-09-10T15:29:23.337Z,98684.72
2022-09-10T15:33:34.879Z,98693.50
2022-09-10T15:37:46.547Z,98690.09
2022-09-10T15:41:59.845Z,98692.78
2022-09-10T15:46:13.039Z,98683.84
2022-09-10T15:50:24.621Z,98676.09
2022-09-10T15:54:36.121Z,98679.31
2022-09-10T15:58:49.753Z,98679.19
2022-09-10T16:03:01.761Z,98671.47
2022-09-10T16:07:14.329Z,98681.53
2022-09-10T16:11:25.818Z,98676.44
2022-09-10T16:15:38.154Z,98680.06
2022-09-10T16:19:51.272Z,98688.50
2022-09-10T16:24:03.867Z,98682.19
2022-09-10T16:28:15.347Z,98678.25
2022-09-10T16:32:26.855Z,98693.69
2022-09-10T16:36:39.453Z,98696.47
2022-09-10T16:41:00.087Z,98696.13
2022-09-10T16:45:11.587Z,98696.16
2022-09-10T16:49:23.355Z,98702.13
2022-09-10T16:53:36.604Z,98706.63
2022-09-10T16:57:48.126Z,98720.25
2022-09-10T17:02:00.552Z,98721.88
2022-09-10T17:06:31.555Z,98725.97
2022-09-10T17:10:43.224Z,98726.56
2022-09-10T17:14:54.719Z,98725.97
2022-09-10T17:19:09.656Z,98738.97
2022-09-10T17:23:21.179Z,98737.34
2022-09-10T17:27:33.146Z,98746.25
2022-09-10T17:31:46.529Z,98752.56
2022-09-10T17:36:00.635Z,98743.44
2022-09-10T17:40:12.917Z,98751.13
2022-09-10T17:44:25.650Z,98747.88
2022-09-10T17:48:37.979Z,98745.06
2022-09-10T17:52:50.130Z,98750.31
2022-09-10T17:57:01.645Z,98755.00
2022-09-10T18:01:25.150Z,98760.06
2022-09-10T18:05:38.323Z,98770.59
2022-09-10T18:09:49.831Z,98776.06
2022-09-10T18:14:01.524Z,98783.53
2022-09-10T18:18:13.544Z,98786.00
2022-09-10T18:22:27.377Z,98780.31
2022-09-10T18:26:42.616Z,98774.44
2022-09-10T18:30:54.163Z,98784.16
2022-09-10T18:35:06.611Z,98790.63
2022-09-10T18:39:18.156Z,98809.66
2022-09-10T18:43:33.957Z,98800.91
2022-09-10T18:47:47.749Z,98811.66
2022-09-10T18:51:59.346Z,98821.78
2022-09-10T18:56:18.073Z,98823.81
2022-09-10T19:00:30.535Z,98821.16
2022-09-10T19:05:07.483Z,98825.63
2022-09-10T19:09:30.400Z,98820.38
2022-09-10T19:13:42.072Z,98834.94
2022-09-10T19:17:53.817Z,98830.06
2022-09-10T19:22:10.463Z,98831.69
2022-09-10T19:26:23.472Z,98829.06
2022-09-10T19:30:37.888Z,98836.16
2022-09-10T19:34:50.955Z,98834.50
2022-09-10T19:39:06.201Z,98833.50
2022-09-10T19:43:17.940Z,98837.72
2022-09-10T19:47:29.476Z,98837.09
2022-09-10T19:51:41.639Z,98827.56
2022-09-10T19:55:53.195Z,98842.91
2022-09-10T20:00:06.799Z,98839.28
2022-09-10T20:04:24.192Z,98849.81
2022-09-10T20:08:35.894Z,98853.44
2022-09-10T20:12:47.389Z,98851.56
2022-09-10T20:16:59.282Z,98846.56
2022-09-10T20:21:16.842Z,98840.25
2022-09-10T20:25:28.661Z,98842.88
2022-09-10T20:29:41.897Z,98842.50
2022-09-10T20:33:59.609Z,98848.13
2022-09-10T20:38:11.210Z,98856.44
2022-09-10T20:42:25.295Z,98859.09
2022-09-10T20:46:37.943Z,98859.72
2022-09-10T20:50:58.410Z,98868.41
2022-09-10T20:55:09.939Z,98870.22
2022-09-10T20:59:26.882Z,98870.03
2022-09-10T21:03:43.436Z,98868.00
2022-09-10T21:07:55.879Z,98860.53
2022-09-10T21:12:07.531Z,98869.44
2022-09-10T21:16:23.103Z,98870.66
2022-09-10T21:20:34.632Z,98874.94
2022-09-10T21:24:46.155Z,98877.75
2022-09-10T21:29:00.099Z,98873.31
